Time;durP1;ratioP1;P1;durP2;ratioP2;P2;SDS_P1;SDS_P2;PMS_P1;PMS_P2;Temp;Humidity;BMP_temperature;BMP_pressure;BME280_temperature;BME280_humidity;BME280_pressure;Samples;Min_cycle;Max_cycle;Signal;HPM_P1;HPM_P2
2021/03/17 00:00:56;;;;;;;;;12.00;11.33;;;;;;;;5041619;27;113027;-76
2021/03/17 00:03:22;;;;;;;;;11.00;10.00;;;;;;;;5035348;27;113605;-75
2021/03/17 00:05:49;;;;;;;;;10.00;10.00;;;;;;;;5034269;27;114120;-76
2021/03/17 00:08:16;;;;;;;;;14.00;11.00;;;;;;;;5034539;27;112053;-75
2021/03/17 00:10:43;;;;;;;;;15.67;11.67;;;;;;;;5038358;27;114422;-76
2021/03/17 00:13:09;;;;;;;;;13.00;10.00;;;;;;;;5037617;27;114379;-75
2021/03/17 00:15:37;;;;;;;;;9.33;9.33;;;;;;;;5038959;27;111825;-75
2021/03/17 00:18:06;;;;;;;;;13.00;10.00;;;;;;;;5037632;27;113475;-74
2021/03/17 00:20:33;;;;;;;;;14.33;10.00;;;;;;;;5033319;27;114152;-74
2021/03/17 00:23:00;;;;;;;;;10.67;10.67;;;;;;;;5042404;27;112274;-74
2021/03/17 00:25:27;;;;;;;;;9.33;8.00;;;;;;;;5037738;27;114157;-75
2021/03/17 00:27:53;;;;;;;;;15.33;13.00;;;;;;;;5038493;27;111823;-75
2021/03/17 00:30:19;;;;;;;;;11.00;8.00;;;;;;;;5038900;27;113567;-74
2021/03/17 00:32:45;;;;;;;;;10.67;10.67;;;;;;;;5037681;27;114381;-75
2021/03/17 00:35:11;;;;;;;;;13.00;10.00;;;;;;;;5037833;27;112048;-76
2021/03/17 00:37:37;;;;;;;;;9.33;8.00;;;;;;;;5038313;27;113616;-76
2021/03/17 00:40:05;;;;;;;;;10.33;10.33;;;;;;;;5037884;27;113508;-75
2021/03/17 00:42:31;;;;;;;;;11.00;10.00;;;;;;;;5038457;27;111946;-75
2021/03/17 00:44:57;;;;;;;;;11.00;8.00;;;;;;;;5041213;27;113672;-79
2021/03/17 00:47:23;;;;;;;;;10.67;10.00;;;;;;;;5038541;27;111875;-76
2021/03/17 00:49:49;;;;;;;;;13.67;13.67;;;;;;;;5038091;27;113513;-77
2021/03/17 00:52:15;;;;;;;;;8.00;7.00;;;;;;;;5037224;27;114052;-77
2021/03/17 00:54:41;;;;;;;;;10.33;10.00;;;;;;;;5037688;27;111795;-77
2021/03/17 00:57:08;;;;;;;;;13.67;8.00;;;;;;;;5038571;27;113375;-78
2021/03/17 00:59:34;;;;;;;;;7.67;7.00;;;;;;;;5037683;27;115003;-75
2021/03/17 01:02:00;;;;;;;;;10.00;7.00;;;;;;;;5037646;27;111943;-79
2021/03/17 01:04:26;;;;;;;;;10.33;8.00;;;;;;;;5037204;27;114378;-75
2021/03/17 01:06:52;;;;;;;;;8.00;8.00;;;;;;;;5041023;27;112315;-74
2021/03/17 01:09:18;;;;;;;;;10.00;8.00;;;;;;;;5037719;27;113969;-74
2021/03/17 01:11:44;;;;;;;;;7.33;6.33;;;;;;;;5037009;27;114135;-75
2021/03/17 01:14:11;;;;;;;;;8.00;7.00;;;;;;;;5037240;27;111864;-76
2021/03/17 01:16:38;;;;;;;;;7.00;7.00;;;;;;;;5037844;27;113653;-76
2021/03/17 01:19:04;;;;;;;;;6.00;5.00;;;;;;;;5037250;27;114022;-75
2021/03/17 01:21:30;;;;;;;;;10.00;7.00;;;;;;;;5037120;27;111883;-76
2021/03/17 01:23:56;;;;;;;;;7.67;7.67;;;;;;;;5037393;27;113776;-75
2021/03/17 01:26:22;;;;;;;;;10.33;7.33;;;;;;;;5040740;27;114034;-74
2021/03/17 01:28:48;;;;;;;;;13.00;10.67;;;;;;;;5037335;27;113423;-74
2021/03/17 01:31:15;;;;;;;;;6.33;6.33;;;;;;;;5036524;27;114666;-74
2021/03/17 01:33:41;;;;;;;;;6.33;5.00;;;;;;;;5037386;27;112060;-75
2021/03/17 01:36:07;;;;;;;;;4.00;4.00;;;;;;;;5037474;27;113651;-76
2021/03/17 01:38:33;;;;;;;;;10.00;7.67;;;;;;;;5036571;27;114098;-74
2021/03/17 01:41:00;;;;;;;;;10.67;7.33;;;;;;;;5037606;27;111867;-74
2021/03/17 01:43:26;;;;;;;;;8.00;5.00;;;;;;;;5036623;27;113114;-76
2021/03/17 01:45:52;;;;;;;;;4.00;4.00;;;;;;;;5036974;27;113995;-76
2021/03/17 01:48:19;;;;;;;;;5.00;5.00;;;;;;;;5040980;27;112384;-74
2021/03/17 01:50:48;;;;;;;;;5.00;5.00;;;;;;;;5036123;27;113898;-76
2021/03/17 01:53:15;;;;;;;;;7.00;5.00;;;;;;;;5037015;27;112089;-74
2021/03/17 01:55:41;;;;;;;;;4.00;4.00;;;;;;;;5037715;27;113489;-74
2021/03/17 01:58:07;;;;;;;;;8.67;5.00;;;;;;;;5036534;27;113957;-75
2021/03/17 02:00:34;;;;;;;;;7.67;7.00;;;;;;;;5037228;27;112043;-76
2021/03/17 02:03:00;;;;;;;;;5.00;5.00;;;;;;;;5036832;27;113565;-75
2021/03/17 02:05:29;;;;;;;;;7.00;6.33;;;;;;;;5036626;27;114310;-76
2021/03/17 02:07:56;;;;;;;;;7.00;5.00;;;;;;;;5036873;27;111907;-77
2021/03/17 02:10:23;;;;;;;;;5.00;5.00;;;;;;;;5040537;27;114109;-75
2021/03/17 02:12:53;;;;;;;;;5.67;4.00;;;;;;;;5037154;27;112075;-74
2021/03/17 02:15:26;;;;;;;;;6.67;6.67;;;;;;;;5037219;27;113578;-74
2021/03/17 02:17:53;;;;;;;;;4.67;4.67;;;;;;;;5039839;27;114038;-77
2021/03/17 02:20:40;;;;;;;;;7.00;5.33;;;;;;;;5049557;27;111721;-75
2021/03/17 02:23:11;;;;;;;;;7.00;5.00;;;;;;;;5045363;27;113581;-74
2021/03/17 02:25:58;;;;;;;;;8.00;4.67;;;;;;;;5045093;27;114029;-76
2021/03/17 02:28:28;;;;;;;;;7.00;5.33;;;;;;;;5036333;27;111876;-73
2021/03/17 02:31:18;;;;;;;;;5.00;5.00;;;;;;;;5036697;27;113542;-73
2021/03/17 02:33:52;;;;;;;;;6.00;6.00;;;;;;;;5028608;27;114523;-76
2021/03/17 02:36:22;;;;;;;;;4.00;4.00;;;;;;;;5036209;27;113574;-75
2021/03/17 02:38:50;;;;;;;;;6.00;6.00;;;;;;;;5036169;27;114153;-75
2021/03/17 02:41:20;;;;;;;;;4.67;4.67;;;;;;;;5036474;27;111809;-74
2021/03/17 02:43:47;;;;;;;;;6.33;4.00;;;;;;;;5036803;27;114046;-75
2021/03/17 02:46:15;;;;;;;;;8.33;4.00;;;;;;;;5035384;27;114166;-75
2021/03/17 02:48:43;;;;;;;;;4.00;3.33;;;;;;;;5033538;27;112195;-74
2021/03/17 02:51:15;;;;;;;;;6.00;4.67;;;;;;;;5033407;27;113638;-76
2021/03/17 02:53:43;;;;;;;;;6.33;4.67;;;;;;;;5032757;27;114277;-76
2021/03/17 02:56:11;;;;;;;;;7.00;6.00;;;;;;;;5036202;27;112067;-77
2021/03/17 02:58:37;;;;;;;;;6.00;6.00;;;;;;;;5032036;27;115572;-77
2021/03/17 03:01:04;;;;;;;;;7.67;6.00;;;;;;;;5036297;27;112214;-78
2021/03/17 03:03:31;;;;;;;;;7.00;4.00;;;;;;;;5037336;27;113769;-76
2021/03/17 03:05:58;;;;;;;;;9.00;6.00;;;;;;;;5036035;27;114700;-76
2021/03/17 03:08:26;;;;;;;;;7.67;6.00;;;;;;;;5035709;27;112275;-76
2021/03/17 03:10:52;;;;;;;;;6.67;5.33;;;;;;;;5036792;27;113524;-76
2021/03/17 03:13:19;;;;;;;;;9.00;6.00;;;;;;;;5035273;27;114112;-76
2021/03/17 03:15:46;;;;;;;;;7.00;7.00;;;;;;;;5041467;27;112103;-76
2021/03/17 03:18:13;;;;;;;;;4.67;4.00;;;;;;;;5036972;27;114822;-76
2021/03/17 03:20:39;;;;;;;;;6.50;6.50;;;;;;;;5032479;27;112256;-76
2021/03/17 03:23:05;;;;;;;;;4.00;4.00;;;;;;;;5036343;27;114077;-75
2021/03/17 03:25:32;;;;;;;;;7.33;6.00;;;;;;;;5035811;27;114073;-74
2021/03/17 03:28:10;;;;;;;;;11.00;6.00;;;;;;;;5035825;27;112255;-75
2021/03/17 03:30:38;;;;;;;;;8.00;8.00;;;;;;;;5036207;27;113011;-75
2021/03/17 03:33:04;;;;;;;;;9.00;6.25;;;;;;;;5035796;27;114010;-77
2021/03/17 03:35:30;;;;;;;;;6.00;6.00;;;;;;;;5035696;27;112362;-76
2021/03/17 03:37:56;;;;;;;;;7.25;6.50;;;;;;;;5039048;27;112903;-75
2021/03/17 03:40:22;;;;;;;;;10.00;6.75;;;;;;;;5035398;27;111862;-75
2021/03/17 03:42:50;;;;;;;;;11.00;6.75;;;;;;;;5036007;27;113724;-77
2021/03/17 03:45:19;;;;;;;;;8.00;6.00;;;;;;;;5035086;27;114169;-75
2021/03/17 03:47:46;;;;;;;;;6.25;6.25;;;;;;;;5035912;27;112334;-75
2021/03/17 03:50:14;;;;;;;;;4.00;3.00;;;;;;;;5035252;27;113629;-77
2021/03/17 03:52:41;;;;;;;;;6.50;6.25;;;;;;;;5032950;27;114397;-74
2021/03/17 03:55:11;;;;;;;;;6.50;6.00;;;;;;;;5038361;27;112151;-75
2021/03/17 03:57:41;;;;;;;;;6.50;6.50;;;;;;;;5039013;27;113757;-77
2021/03/17 04:00:09;;;;;;;;;9.75;6.00;;;;;;;;5033933;27;113129;-75
2021/03/17 04:02:39;;;;;;;;;3.50;3.00;;;;;;;;5038837;27;113814;-75
2021/03/17 04:05:05;;;;;;;;;6.25;6.00;;;;;;;;5038332;27;114199;-76
2021/03/17 04:07:33;;;;;;;;;10.25;6.75;;;;;;;;5038563;27;112267;-76
2021/03/17 04:10:02;;;;;;;;;6.00;6.00;;;;;;;;5039147;27;113710;-75
2021/03/17 04:12:29;;;;;;;;;4.50;4.50;;;;;;;;5038465;27;114753;-76
2021/03/17 04:14:58;;;;;;;;;6.25;6.25;;;;;;;;5039243;27;112404;-77
2021/03/17 04:17:27;;;;;;;;;6.75;6.00;;;;;;;;5038655;27;114016;-76
2021/03/17 04:19:56;;;;;;;;;8.00;7.00;;;;;;;;5038286;27;114312;-76
2021/03/17 04:22:22;;;;;;;;;12.00;7.00;;;;;;;;5042209;27;112059;-77
2021/03/17 04:24:50;;;;;;;;;12.00;6.00;;;;;;;;5034948;27;113535;-76
2021/03/17 04:27:17;;;;;;;;;7.00;6.50;;;;;;;;5038164;27;112322;-77
2021/03/17 04:29:45;;;;;;;;;9.50;5.50;;;;;;;;5038840;27;113517;-76
2021/03/17 04:32:11;;;;;;;;;6.00;6.00;;;;;;;;5033696;27;112894;-77
2021/03/17 04:34:39;;;;;;;;;3.50;1.00;;;;;;;;5034964;27;112057;-76
2021/03/17 04:37:06;;;;;;;;;7.00;7.00;;;;;;;;5037628;27;113495;-76
2021/03/17 04:39:32;;;;;;;;;6.25;6.00;;;;;;;;5037228;27;114319;-76
2021/03/17 04:41:58;;;;;;;;;7.00;6.75;;;;;;;;5038647;27;112266;-76
2021/03/17 04:44:24;;;;;;;;;6.00;6.00;;;;;;;;5040937;27;114069;-76
2021/03/17 04:46:51;;;;;;;;;6.00;6.00;;;;;;;;5038208;27;112012;-75
2021/03/17 04:49:19;;;;;;;;;9.25;4.50;;;;;;;;5037678;27;113542;-76
2021/03/17 04:51:46;;;;;;;;;9.00;6.00;;;;;;;;5037469;27;114210;-74
2021/03/17 04:54:13;;;;;;;;;7.50;6.00;;;;;;;;5038499;27;111916;-77
2021/03/17 04:56:41;;;;;;;;;3.50;3.50;;;;;;;;5038425;27;113794;-75
2021/03/17 04:59:07;;;;;;;;;9.00;6.00;;;;;;;;5032721;27;114094;-74
2021/03/17 05:01:35;;;;;;;;;6.00;3.75;;;;;;;;5038074;27;112210;-75
2021/03/17 05:04:02;;;;;;;;;3.00;3.00;;;;;;;;5037316;27;113889;-75
2021/03/17 05:06:30;;;;;;;;;3.75;3.75;;;;;;;;5040869;27;114557;-75
2021/03/17 05:08:58;;;;;;;;;4.50;4.00;;;;;;;;5038091;27;113583;-76
2021/03/17 05:11:24;;;;;;;;;7.00;7.00;;;;;;;;5037242;27;114037;-75
2021/03/17 05:13:50;;;;;;;;;4.50;3.75;;;;;;;;5037612;27;111847;-75
2021/03/17 05:16:16;;;;;;;;;5.50;5.50;;;;;;;;5036406;27;113237;-76
2021/03/17 05:18:44;;;;;;;;;6.75;6.00;;;;;;;;5037757;27;114285;-74
2021/03/17 05:21:10;;;;;;;;;5.50;4.50;;;;;;;;5037642;27;112001;-76
2021/03/17 05:23:38;;;;;;;;;6.25;5.00;;;;;;;;5034070;27;113539;-76
2021/03/17 05:26:05;;;;;;;;;6.25;5.00;;;;;;;;5041015;27;114253;-76
2021/03/17 05:28:31;;;;;;;;;8.50;6.25;;;;;;;;5037383;27;114051;-76
2021/03/17 05:30:57;;;;;;;;;8.50;8.00;;;;;;;;5037544;27;114029;-77
2021/03/17 05:33:25;;;;;;;;;7.50;6.00;;;;;;;;5037994;27;112671;-75
2021/03/17 05:35:51;;;;;;;;;3.75;3.75;;;;;;;;5037200;27;113079;-76
2021/03/17 05:38:17;;;;;;;;;9.00;9.00;;;;;;;;5036277;27;113969;-74
2021/03/17 05:40:44;;;;;;;;;6.50;6.00;;;;;;;;5038308;27;111855;-74
2021/03/17 05:43:11;;;;;;;;;6.00;5.50;;;;;;;;5037465;27;113704;-75
2021/03/17 05:45:37;;;;;;;;;3.50;3.00;;;;;;;;5032717;27;113967;-77
2021/03/17 05:48:04;;;;;;;;;6.00;4.00;;;;;;;;5041359;27;112148;-74
2021/03/17 05:50:30;;;;;;;;;9.50;5.00;;;;;;;;5036572;27;114209;-72
2021/03/17 05:52:56;;;;;;;;;4.50;4.50;;;;;;;;5037468;27;112233;-74
2021/03/17 05:55:22;;;;;;;;;5.00;4.00;;;;;;;;5037656;27;113460;-75
2021/03/17 05:57:48;;;;;;;;;5.00;4.00;;;;;;;;5037591;27;114292;-76
2021/03/17 06:00:16;;;;;;;;;4.00;4.00;;;;;;;;5037927;27;111802;-77
2021/03/17 06:02:42;;;;;;;;;6.50;6.00;;;;;;;;5037980;27;114197;-76
2021/03/17 06:05:10;;;;;;;;;10.00;9.00;;;;;;;;5036500;27;114020;-75
2021/03/17 06:07:40;;;;;;;;;7.00;7.00;;;;;;;;5032896;27;113826;-77
2021/03/17 06:10:08;;;;;;;;;11.00;10.50;;;;;;;;5036561;27;114284;-76
2021/03/17 06:12:35;;;;;;;;;10.00;9.00;;;;;;;;5038065;27;112173;-76
2021/03/17 06:15:02;;;;;;;;;11.00;11.00;;;;;;;;5037166;27;113701;-76
2021/03/17 06:17:30;;;;;;;;;13.50;12.25;;;;;;;;5036495;27;114647;-77
2021/03/17 06:19:59;;;;;;;;;15.00;13.00;;;;;;;;5037293;27;111961;-75
2021/03/17 06:22:25;;;;;;;;;12.00;10.25;;;;;;;;5038228;27;113665;-80
2021/03/17 06:24:51;;;;;;;;;11.50;8.50;;;;;;;;5037021;27;114403;-75
2021/03/17 06:27:17;;;;;;;;;8.75;8.75;;;;;;;;5043015;27;112278;-75
2021/03/17 06:29:43;;;;;;;;;13.00;12.50;;;;;;;;5044366;27;112798;-76
2021/03/17 06:32:09;;;;;;;;;13.50;11.75;;;;;;;;5048350;27;113278;-76
2021/03/17 06:34:43;;;;;;;;;13.50;12.00;;;;;;;;5037539;27;113993;-75
2021/03/17 06:37:09;;;;;;;;;14.50;14.25;;;;;;;;5031352;27;114122;-71
2021/03/17 06:39:35;;;;;;;;;8.75;7.50;;;;;;;;5032114;27;112179;-73
2021/03/17 06:42:02;;;;;;;;;14.00;11.75;;;;;;;;5035024;27;113660;-76
2021/03/17 06:44:29;;;;;;;;;11.50;11.50;;;;;;;;5033392;27;114222;-70
2021/03/17 06:47:15;;;;;;;;;15.25;14.50;;;;;;;;5034866;27;112403;-69
2021/03/17 06:49:42;;;;;;;;;5.75;4.00;;;;;;;;5034359;27;113460;-69
2021/03/17 06:52:31;;;;;;;;;16.25;15.00;;;;;;;;5033618;27;114060;-75
2021/03/17 06:55:07;;;;;;;;;15.50;15.25;;;;;;;;5037245;27;112865;-72
2021/03/17 06:57:33;;;;;;;;;15.00;15.00;;;;;;;;5034220;27;114107;-72
2021/03/17 07:00:14;;;;;;;;;16.00;15.25;;;;;;;;5031215;27;113230;-71
2021/03/17 07:02:40;;;;;;;;;20.75;15.75;;;;;;;;5034376;27;114416;-71
2021/03/17 07:05:08;;;;;;;;;14.50;14.50;;;;;;;;5032716;27;114104;-72
2021/03/17 07:07:45;;;;;;;;;13.00;13.00;;;;;;;;5027424;27;112412;-72
2021/03/17 07:10:11;;;;;;;;;18.00;13.00;;;;;;;;5031827;27;114117;-72
2021/03/17 07:12:37;;;;;;;;;17.50;17.50;;;;;;;;5033312;27;114163;-70
2021/03/17 07:15:08;;;;;;;;;18.00;15.25;;;;;;;;5031807;27;112235;-73
2021/03/17 07:17:34;;;;;;;;;17.00;15.75;;;;;;;;5035650;27;113693;-72
2021/03/17 07:20:04;;;;;;;;;20.50;17.25;;;;;;;;5033465;27;112309;-72
2021/03/17 07:22:31;;;;;;;;;21.25;17.00;;;;;;;;5034590;27;113707;-72
2021/03/17 07:25:00;;;;;;;;;16.00;16.00;;;;;;;;5033523;27;114038;-72
2021/03/17 07:27:27;;;;;;;;;17.25;13.25;;;;;;;;5035202;27;112207;-73
2021/03/17 07:30:12;;;;;;;;;19.50;15.25;;;;;;;;5039364;27;113435;-72
2021/03/17 07:32:55;;;;;;;;;18.75;16.25;;;;;;;;5035439;27;114000;-74
2021/03/17 07:35:24;;;;;;;;;15.00;15.00;;;;;;;;5036829;27;112310;-73
2021/03/17 07:38:02;;;;;;;;;17.50;16.75;;;;;;;;5042482;27;113539;-72
2021/03/17 07:40:29;;;;;;;;;23.25;19.50;;;;;;;;5039701;27;111851;-78
2021/03/17 07:42:56;;;;;;;;;17.25;13.50;;;;;;;;5036946;27;114342;-74
2021/03/17 07:45:23;;;;;;;;;16.25;14.50;;;;;;;;5034032;27;114309;-73
2021/03/17 07:47:49;;;;;;;;;18.25;16.00;;;;;;;;5031977;27;114500;-73
2021/03/17 07:50:16;;;;;;;;;18.25;16.75;;;;;;;;5036797;27;113953;-74
2021/03/17 07:52:43;;;;;;;;;24.75;20.50;;;;;;;;5037496;27;114283;-71
2021/03/17 07:55:11;;;;;;;;;27.75;24.50;;;;;;;;5037170;27;112180;-72
2021/03/17 07:57:37;;;;;;;;;25.50;21.00;;;;;;;;5034073;27;113568;-72
2021/03/17 08:00:04;;;;;;;;;23.00;19.75;;;;;;;;5039684;27;114604;-73
2021/03/17 08:02:31;;;;;;;;;24.00;21.00;;;;;;;;5037788;27;113445;-71
2021/03/17 08:04:59;;;;;;;;;18.25;18.25;;;;;;;;5035697;27;114307;-71
2021/03/17 08:07:25;;;;;;;;;25.00;21.75;;;;;;;;5036657;27;112341;-72
2021/03/17 08:09:52;;;;;;;;;22.00;19.25;;;;;;;;5036550;27;114814;-71
2021/03/17 08:12:20;;;;;;;;;21.50;18.75;;;;;;;;5036131;27;114613;-71
2021/03/17 08:14:46;;;;;;;;;21.00;19.00;;;;;;;;5036481;27;111966;-71
2021/03/17 08:17:12;;;;;;;;;21.75;19.00;;;;;;;;5035621;27;113506;-71
2021/03/17 08:19:38;;;;;;;;;20.50;19.50;;;;;;;;5036603;27;113980;-71
2021/03/17 08:22:06;;;;;;;;;21.33;17.67;;;;;;;;5040613;27;112103;-70
2021/03/17 08:24:42;;;;;;;;;26.00;18.00;;;;;;;;5035711;27;114170;-71
2021/03/17 08:27:20;;;;;;;;;22.00;22.00;;;;;;;;5035499;27;113395;-70
2021/03/17 08:29:46;;;;;;;;;19.67;19.67;;;;;;;;5034391;27;113535;-72
2021/03/17 08:32:13;;;;;;;;;19.33;18.67;;;;;;;;5026507;27;112921;-71
2021/03/17 08:34:40;;;;;;;;;21.00;19.00;;;;;;;;5036112;27;112232;-73
2021/03/17 08:37:06;;;;;;;;;20.00;17.00;;;;;;;;5033055;27;114002;-78
2021/03/17 08:39:40;;;;;;;;;21.25;18.50;;;;;;;;5032160;27;114648;-72
2021/03/17 08:42:06;;;;;;;;;16.00;15.25;;;;;;;;5034385;27;112087;-74
2021/03/17 08:44:43;;;;;;;;;20.75;19.25;;;;;;;;5040103;27;113634;-74
2021/03/17 08:47:15;;;;;;;;;18.50;15.75;;;;;;;;5033218;27;112060;-83
2021/03/17 08:49:41;;;;;;;;;21.50;19.75;;;;;;;;5034522;27;113970;-78
2021/03/17 08:52:09;;;;;;;;;23.50;20.25;;;;;;;;5035617;27;117475;-78
2021/03/17 08:55:05;;;;;;;;;23.25;19.00;;;;;;;;5032718;27;111941;-68
2021/03/17 08:57:49;;;;;;;;;21.25;18.25;;;;;;;;5035473;27;113995;-69
2021/03/17 09:00:36;;;;;;;;;21.00;19.25;;;;;;;;5032523;27;114171;-69
2021/03/17 09:03:02;;;;;;;;;20.50;19.25;;;;;;;;5036144;27;111955;-70
2021/03/17 09:05:29;;;;;;;;;20.25;18.50;;;;;;;;5036662;27;113450;-69
2021/03/17 09:08:02;;;;;;;;;21.50;19.75;;;;;;;;5037987;27;114725;-70
2021/03/17 09:10:38;;;;;;;;;19.25;17.75;;;;;;;;5036857;27;114008;-70
2021/03/17 09:13:04;;;;;;;;;20.50;18.75;;;;;;;;5035187;27;114668;-71
2021/03/17 09:15:41;;;;;;;;;23.00;21.25;;;;;;;;5036437;27;114265;-71
2021/03/17 09:18:08;;;;;;;;;20.00;17.75;;;;;;;;5031988;27;113447;-70
2021/03/17 09:20:38;;;;;;;;;18.00;18.00;;;;;;;;5035678;27;114096;-70
2021/03/17 09:23:06;;;;;;;;;18.00;17.75;;;;;;;;5035361;27;111927;-71
2021/03/17 09:25:33;;;;;;;;;16.75;16.00;;;;;;;;5035946;27;113796;-69
2021/03/17 09:28:03;;;;;;;;;17.00;16.00;;;;;;;;5035606;27;114089;-70
2021/03/17 09:30:31;;;;;;;;;18.00;16.25;;;;;;;;5040279;27;112244;-75
2021/03/17 09:33:06;;;;;;;;;20.75;20.00;;;;;;;;5036136;27;113951;-75
2021/03/17 09:35:33;;;;;;;;;18.00;17.25;;;;;;;;5035916;27;112115;-76
2021/03/17 09:38:00;;;;;;;;;19.00;17.50;;;;;;;;5035822;27;113368;-76
2021/03/17 09:40:26;;;;;;;;;17.00;17.00;;;;;;;;5035020;27;114131;-76
2021/03/17 09:42:52;;;;;;;;;18.75;16.25;;;;;;;;5035515;27;111916;-77
2021/03/17 09:45:24;;;;;;;;;17.33;17.00;;;;;;;;5035680;27;113405;-75
2021/03/17 09:47:54;;;;;;;;;16.67;16.33;;;;;;;;5035564;27;114042;-75
2021/03/17 09:50:22;;;;;;;;;17.33;16.00;;;;;;;;5034918;27;112052;-76
2021/03/17 09:52:48;;;;;;;;;18.67;17.00;;;;;;;;5035209;27;114901;-76
2021/03/17 09:55:30;;;;;;;;;15.00;15.00;;;;;;;;5032846;27;112880;-75
2021/03/17 09:57:57;;;;;;;;;10.33;9.33;;;;;;;;5033122;27;113985;-75
2021/03/17 10:00:24;;;;;;;;;10.00;10.00;;;;;;;;5033210;27;114175;-75
2021/03/17 10:02:50;;;;;;;;;10.33;8.00;;;;;;;;5034212;27;112667;-76
2021/03/17 10:05:16;;;;;;;;;8.67;8.67;;;;;;;;5033329;27;114050;-74
2021/03/17 10:07:42;;;;;;;;;8.67;8.67;;;;;;;;5032816;27;114137;-73
2021/03/17 10:10:09;;;;;;;;;10.33;8.67;;;;;;;;5035047;27;111888;-74
2021/03/17 10:12:35;;;;;;;;;5.33;5.33;;;;;;;;5038427;27;116716;-79
2021/03/17 10:15:02;;;;;;;;;6.67;6.67;;;;;;;;5034319;27;112161;-80
2021/03/17 10:17:28;;;;;;;;;7.67;6.67;;;;;;;;5035426;27;114000;-79
2021/03/17 10:19:55;;;;;;;;;7.00;7.00;;;;;;;;5034634;27;114826;-77
2021/03/17 10:22:22;;;;;;;;;8.00;7.67;;;;;;;;5034641;27;111946;-75
2021/03/17 10:24:50;;;;;;;;;6.00;6.00;;;;;;;;5033210;27;113568;-75
2021/03/17 10:27:17;;;;;;;;;3.00;3.00;;;;;;;;5033695;27;114141;-79
2021/03/17 10:29:44;;;;;;;;;3.33;3.33;;;;;;;;5031450;27;111961;-76
2021/03/17 10:32:13;;;;;;;;;4.00;3.00;;;;;;;;5034960;27;113635;-74
2021/03/17 10:34:39;;;;;;;;;3.00;2.00;;;;;;;;5037878;27;115114;-74
2021/03/17 10:37:10;;;;;;;;;2.00;2.00;;;;;;;;5033566;27;114625;-81
2021/03/17 10:39:37;;;;;;;;;2.67;2.33;;;;;;;;5032825;27;114151;-75
2021/03/17 10:42:04;;;;;;;;;1.33;1.00;;;;;;;;5030885;27;112036;-78
2021/03/17 10:44:31;;;;;;;;;2.00;2.00;;;;;;;;5035468;27;113852;-77
2021/03/17 10:46:59;;;;;;;;;4.00;4.00;;;;;;;;5034588;27;114433;-75
2021/03/17 10:49:25;;;;;;;;;4.00;4.00;;;;;;;;5035402;27;112072;-75
2021/03/17 10:51:51;;;;;;;;;8.00;7.00;;;;;;;;5035303;27;113787;-77
2021/03/17 10:54:26;;;;;;;;;8.33;6.00;;;;;;;;5033004;27;114132;-76
2021/03/17 10:56:52;;;;;;;;;5.67;5.67;;;;;;;;5038373;27;111895;-76
2021/03/17 10:59:24;;;;;;;;;8.67;8.00;;;;;;;;5032888;27;113447;-76
2021/03/17 11:01:50;;;;;;;;;6.00;6.00;;;;;;;;5032347;27;114289;-76
2021/03/17 11:04:17;;;;;;;;;4.50;4.50;;;;;;;;5033967;27;113134;-77
2021/03/17 11:06:56;;;;;;;;;4.00;4.00;;;;;;;;5033144;27;114024;-78
2021/03/17 11:09:22;;;;;;;;;14.50;13.00;;;;;;;;5033927;27;111922;-76
2021/03/17 11:11:49;;;;;;;;;4.50;4.50;;;;;;;;5034284;27;114025;-77
2021/03/17 11:14:30;;;;;;;;;6.00;5.50;;;;;;;;5032226;27;113709;-77
2021/03/17 11:17:02;;;;;;;;;11.00;11.00;;;;;;;;5032497;27;112145;-76
2021/03/17 11:19:28;;;;;;;;;8.00;7.00;;;;;;;;5036092;27;113828;-76
2021/03/17 11:21:54;;;;;;;;;7.50;5.75;;;;;;;;5033533;27;112971;-76
2021/03/17 11:24:21;;;;;;;;;7.50;6.75;;;;;;;;5026553;27;114226;-77
2021/03/17 11:26:48;;;;;;;;;5.25;4.25;;;;;;;;5033357;27;114057;-78
2021/03/17 11:29:16;;;;;;;;;6.00;6.00;;;;;;;;5033618;27;113504;-76
2021/03/17 11:31:42;;;;;;;;;5.50;5.50;;;;;;;;5034382;27;115575;-77
2021/03/17 11:34:10;;;;;;;;;7.00;6.25;;;;;;;;5032952;27;114973;-77
2021/03/17 11:36:36;;;;;;;;;4.00;4.00;;;;;;;;5030538;27;112081;-77
2021/03/17 11:39:04;;;;;;;;;9.00;6.00;;;;;;;;5033161;27;114150;-77
2021/03/17 11:41:30;;;;;;;;;5.75;5.75;;;;;;;;5037254;27;113161;-77
2021/03/17 11:43:56;;;;;;;;;6.75;5.75;;;;;;;;5034543;27;113815;-77
2021/03/17 11:46:23;;;;;;;;;7.50;7.50;;;;;;;;5033008;27;114438;-79
2021/03/17 11:48:49;;;;;;;;;5.00;5.00;;;;;;;;5033679;27;112042;-79
2021/03/17 11:51:16;;;;;;;;;6.50;6.50;;;;;;;;5034481;27;113999;-80
2021/03/17 11:53:42;;;;;;;;;6.50;6.50;;;;;;;;5033416;27;114626;-79
2021/03/17 11:56:08;;;;;;;;;6.00;6.00;;;;;;;;5033720;27;112070;-79
2021/03/17 11:58:34;;;;;;;;;6.00;6.00;;;;;;;;5033962;27;114474;-80
2021/03/17 12:01:02;;;;;;;;;5.00;5.00;;;;;;;;5038206;27;114856;-81
2021/03/17 12:03:28;;;;;;;;;6.25;4.00;;;;;;;;5034624;27;112864;-80
2021/03/17 12:05:54;;;;;;;;;5.50;5.00;;;;;;;;5033057;27;114201;-79
2021/03/17 12:08:21;;;;;;;;;6.25;5.75;;;;;;;;5033160;27;111896;-80
2021/03/17 12:10:49;;;;;;;;;4.00;4.00;;;;;;;;5034047;27;113411;-84
2021/03/17 12:13:15;;;;;;;;;5.00;5.00;;;;;;;;5033328;27;114316;-83
2021/03/17 12:15:42;;;;;;;;;4.00;4.00;;;;;;;;5037128;27;112097;-84
2021/03/17 12:18:08;;;;;;;;;7.00;6.25;;;;;;;;5036908;27;114169;-84
2021/03/17 12:20:34;;;;;;;;;5.00;5.00;;;;;;;;5035918;27;114248;-84
2021/03/17 12:23:01;;;;;;;;;5.25;5.25;;;;;;;;5041264;27;112381;-84
2021/03/17 12:25:28;;;;;;;;;5.50;5.50;;;;;;;;5036793;27;113481;-85
2021/03/17 12:27:54;;;;;;;;;2.50;2.50;;;;;;;;5037052;27;112067;-68
2021/03/17 12:30:21;;;;;;;;;2.00;2.00;;;;;;;;5036314;27;113672;-68
2021/03/17 12:32:48;;;;;;;;;2.50;2.50;;;;;;;;5036512;27;114106;-69
2021/03/17 12:35:15;;;;;;;;;3.00;3.00;;;;;;;;5035492;27;112160;-68
2021/03/17 12:37:43;;;;;;;;;3.00;2.00;;;;;;;;5036631;27;113701;-68
2021/03/17 12:40:10;;;;;;;;;2.75;2.25;;;;;;;;5035578;27;114229;-68
2021/03/17 12:42:38;;;;;;;;;2.50;1.50;;;;;;;;5033281;27;112179;-68
2021/03/17 12:45:04;;;;;;;;;1.50;1.50;;;;;;;;5039247;27;114319;-67
2021/03/17 12:47:30;;;;;;;;;2.00;2.00;;;;;;;;5036243;27;112176;-69
2021/03/17 12:49:56;;;;;;;;;3.25;3.00;;;;;;;;5037163;27;113352;-69
2021/03/17 12:52:23;;;;;;;;;2.00;2.00;;;;;;;;5035263;27;114035;-68
2021/03/17 12:54:49;;;;;;;;;1.00;1.00;;;;;;;;5036762;27;112611;-68
2021/03/17 12:57:15;;;;;;;;;4.00;2.00;;;;;;;;5032332;27;113348;-69
2021/03/17 12:59:42;;;;;;;;;1.50;1.50;;;;;;;;5035801;27;114111;-69
2021/03/17 13:02:08;;;;;;;;;1.00;1.00;;;;;;;;5035861;27;112102;-70
2021/03/17 13:04:34;;;;;;;;;1.00;1.00;;;;;;;;5036634;27;113314;-69
2021/03/17 13:07:00;;;;;;;;;0.00;0.00;;;;;;;;5038886;27;114283;-68
2021/03/17 13:09:26;;;;;;;;;2.50;1.00;;;;;;;;5034932;27;113973;-69
2021/03/17 13:11:55;;;;;;;;;1.00;1.00;;;;;;;;5035712;27;114060;-69
2021/03/17 13:14:21;;;;;;;;;0.00;0.00;;;;;;;;5035954;27;113392;-69
2021/03/17 13:16:48;;;;;;;;;1.75;1.75;;;;;;;;5036598;27;113670;-77
2021/03/17 13:19:14;;;;;;;;;2.00;2.00;;;;;;;;5034743;27;114200;-73
2021/03/17 13:21:40;;;;;;;;;5.25;4.00;;;;;;;;5036401;27;112034;-75
2021/03/17 13:24:06;;;;;;;;;1.00;1.00;;;;;;;;5030453;27;113442;-73
2021/03/17 13:26:32;;;;;;;;;2.75;2.75;;;;;;;;5035403;27;114043;-74
2021/03/17 13:28:58;;;;;;;;;3.00;2.00;;;;;;;;5040126;27;112268;-75
2021/03/17 13:31:24;;;;;;;;;1.75;1.75;;;;;;;;5034338;27;114088;-79
2021/03/17 13:33:51;;;;;;;;;1.25;1.25;;;;;;;;5035672;27;111934;-75
2021/03/17 13:36:17;;;;;;;;;1.00;1.00;;;;;;;;5035599;27;114596;-77
2021/03/17 13:38:43;;;;;;;;;1.00;1.00;;;;;;;;5035626;27;114706;-75
2021/03/17 13:41:09;;;;;;;;;0.00;0.00;;;;;;;;5036428;27;111983;-77
2021/03/17 13:43:35;;;;;;;;;1.00;1.00;;;;;;;;5031866;27;113927;-74
2021/03/17 13:46:02;;;;;;;;;1.75;1.75;;;;;;;;5035649;27;114261;-76
2021/03/17 13:48:28;;;;;;;;;1.00;1.00;;;;;;;;5039019;27;111842;-77
2021/03/17 13:50:54;;;;;;;;;2.00;1.75;;;;;;;;5034492;27;113912;-76
2021/03/17 13:53:20;;;;;;;;;1.00;1.00;;;;;;;;5035389;27;113413;-75
2021/03/17 13:55:46;;;;;;;;;1.00;1.00;;;;;;;;5036177;27;112617;-75
2021/03/17 13:58:12;;;;;;;;;1.00;1.00;;;;;;;;5034083;27;114134;-76
2021/03/17 14:00:38;;;;;;;;;1.00;1.00;;;;;;;;5035583;27;111890;-75
2021/03/17 14:03:05;;;;;;;;;0.00;0.00;;;;;;;;5030759;27;114009;-76
2021/03/17 14:05:31;;;;;;;;;0.25;0.25;;;;;;;;5035226;27;114328;-75
2021/03/17 14:07:58;;;;;;;;;2.00;2.00;;;;;;;;5035965;27;112067;-78
2021/03/17 14:10:25;;;;;;;;;1.00;1.00;;;;;;;;5038259;27;113587;-76
2021/03/17 14:12:51;;;;;;;;;1.00;1.00;;;;;;;;5035744;27;113214;-75
2021/03/17 14:15:18;;;;;;;;;3.00;1.00;;;;;;;;5034855;27;113727;-76
2021/03/17 14:17:45;;;;;;;;;2.00;2.00;;;;;;;;5034869;27;114391;-77
2021/03/17 14:20:12;;;;;;;;;1.50;1.50;;;;;;;;5034841;27;113346;-74
2021/03/17 14:22:38;;;;;;;;;1.00;1.00;;;;;;;;5035729;27;113475;-75
2021/03/17 14:25:06;;;;;;;;;1.00;1.00;;;;;;;;5033685;27;116080;-75